createdAt,value
2018-05-29T00:00:38.233Z,11.79
2018-05-29T00:01:38.245Z,11.70
2018-05-29T00:02:38.265Z,11.65
2018-05-29T00:03:38.279Z,11.70
2018-05-29T00:04:38.292Z,11.70
2018-05-29T00:05:38.308Z,11.72
2018-05-29T00:06:38.320Z,11.75
2018-05-29T00:07:38.337Z,11.73
2018-05-29T00:08:38.352Z,11.76
2018-05-29T00:09:38.367Z,11.65
2018-05-29T00:10:38.383Z,11.62
2018-05-29T00:11:38.398Z,11.67
2018-05-29T00:12:38.413Z,11.70
2018-05-29T00:13:38.430Z,11.67
2018-05-29T00:14:38.445Z,11.61
2018-05-29T00:15:38.458Z,11.64
2018-05-29T00:16:38.474Z,11.60
2018-05-29T00:17:38.489Z,11.65
2018-05-29T00:18:38.504Z,11.57
2018-05-29T00:19:38.520Z,11.47
2018-05-29T00:20:38.533Z,11.44
2018-05-29T00:21:38.552Z,11.46
2018-05-29T00:22:38.564Z,11.40
2018-05-29T00:23:38.581Z,11.49
2018-05-29T00:24:38.594Z,11.43
2018-05-29T00:25:38.608Z,11.42
2018-05-29T00:26:38.624Z,11.46
2018-05-29T00:27:38.639Z,11.43
2018-05-29T00:28:38.654Z,11.42
2018-05-29T00:29:38.669Z,11.44
2018-05-29T00:30:38.683Z,11.42
2018-05-29T00:31:38.698Z,11.33
2018-05-29T00:32:38.714Z,11.25
2018-05-29T00:33:38.728Z,11.35
2018-05-29T00:34:38.742Z,11.37
2018-05-29T00:35:38.760Z,11.24
2018-05-29T00:36:38.777Z,11.25
2018-05-29T00:37:38.788Z,11.28
2018-05-29T00:38:38.803Z,11.24
2018-05-29T00:39:38.825Z,11.37
2018-05-29T00:40:38.837Z,11.33
2018-05-29T00:41:38.849Z,11.25
2018-05-29T00:42:38.870Z,11.33
2018-05-29T00:43:38.878Z,11.24
2018-05-29T00:44:38.895Z,11.29
2018-05-29T00:45:38.908Z,11.24
2018-05-29T00:46:38.921Z,11.21
2018-05-29T00:47:38.938Z,11.18
2018-05-29T00:48:38.955Z,11.09
2018-05-29T00:49:38.968Z,11.21
2018-05-29T00:50:38.985Z,11.17
2018-05-29T00:51:38.999Z,11.06
2018-05-29T00:52:39.015Z,11.00
2018-05-29T00:53:39.031Z,11.04
2018-05-29T00:54:39.043Z,11.15
2018-05-29T00:55:39.057Z,11.09
2018-05-29T00:56:39.072Z,10.97
2018-05-29T00:57:39.087Z,11.02
2018-05-29T00:58:39.101Z,11.04
2018-05-29T00:59:39.115Z,11.04
2018-05-29T01:00:39.133Z,10.91
2018-05-29T01:01:39.156Z,10.88
2018-05-29T01:02:39.160Z,10.84
2018-05-29T01:03:39.174Z,10.64
2018-05-29T01:04:39.190Z,10.61
2018-05-29T01:05:39.204Z,10.51
2018-05-29T01:06:39.219Z,10.30
2018-05-29T01:07:39.235Z,10.32
2018-05-29T01:08:39.248Z,10.30
2018-05-29T01:09:39.266Z,10.26
2018-05-29T01:10:39.277Z,10.33
2018-05-29T01:11:39.297Z,10.29
2018-05-29T01:12:39.336Z,10.30
2018-05-29T01:13:39.323Z,10.34
2018-05-29T01:14:39.335Z,10.29
2018-05-29T01:15:39.351Z,10.25
2018-05-29T01:16:39.365Z,10.15
2018-05-29T01:17:39.379Z,10.22
2018-05-29T01:18:39.392Z,10.22
2018-05-29T01:19:39.407Z,10.12
2018-05-29T01:20:39.424Z,10.09
2018-05-29T01:21:39.437Z,10.07
2018-05-29T01:22:39.451Z,10.12
2018-05-29T01:23:39.467Z,10.12
2018-05-29T01:24:39.478Z,10.17
2018-05-29T01:25:39.493Z,10.18
2018-05-29T01:26:39.506Z,10.20
2018-05-29T01:27:39.520Z,10.18
2018-05-29T01:28:39.534Z,10.26
2018-05-29T01:29:39.551Z,10.27
2018-05-29T01:30:39.563Z,10.17
2018-05-29T01:31:39.576Z,10.34
2018-05-29T01:32:39.591Z,10.38
2018-05-29T01:33:39.605Z,10.36
2018-05-29T01:34:39.617Z,10.36
2018-05-29T01:35:39.635Z,10.32
2018-05-29T01:36:39.649Z,10.34
2018-05-29T01:37:39.663Z,10.41
2018-05-29T01:38:39.676Z,10.41
2018-05-29T01:39:39.688Z,10.53
2018-05-29T01:40:39.701Z,10.53
2018-05-29T01:41:39.718Z,10.44
2018-05-29T01:42:39.737Z,10.48
2018-05-29T01:43:39.745Z,10.45
2018-05-29T01:44:39.758Z,10.48
2018-05-29T01:45:39.775Z,10.47
2018-05-29T01:46:39.790Z,10.51
2018-05-29T01:47:39.803Z,10.48
2018-05-29T01:48:39.815Z,10.52
2018-05-29T01:49:39.831Z,10.55
2018-05-29T01:50:39.845Z,10.55
2018-05-29T01:51:39.863Z,10.51
2018-05-29T01:52:39.871Z,10.52
2018-05-29T01:53:39.888Z,10.52
2018-05-29T01:54:39.902Z,10.33
2018-05-29T01:55:39.917Z,10.32
2018-05-29T01:56:39.935Z,10.29
2018-05-29T01:57:39.945Z,10.30
2018-05-29T01:58:39.958Z,10.29
2018-05-29T01:59:39.971Z,10.33
2018-05-29T02:00:39.986Z,10.18
2018-05-29T02:01:40.002Z,10.30
2018-05-29T02:02:40.015Z,10.25
2018-05-29T02:03:40.028Z,10.27
2018-05-29T02:04:40.043Z,10.25
2018-05-29T02:05:40.060Z,10.33
2018-05-29T02:06:40.073Z,10.34
2018-05-29T02:07:40.088Z,10.33
2018-05-29T02:08:40.103Z,10.33
2018-05-29T02:09:40.114Z,10.36
2018-05-29T02:10:40.132Z,10.38
2018-05-29T02:11:40.140Z,10.32
2018-05-29T02:12:40.156Z,10.29
2018-05-29T02:13:40.169Z,10.32
2018-05-29T02:14:40.182Z,10.36
2018-05-29T02:15:40.198Z,10.34
2018-05-29T02:16:40.213Z,10.41
2018-05-29T02:17:40.227Z,10.30
2018-05-29T02:18:40.239Z,10.34
2018-05-29T02:19:40.254Z,10.32
2018-05-29T02:20:40.271Z,10.33
2018-05-29T02:21:40.284Z,10.32
2018-05-29T02:22:40.296Z,10.32
2018-05-29T02:23:40.313Z,10.30
2018-05-29T02:24:40.329Z,9.96
2018-05-29T02:25:40.339Z,9.93
2018-05-29T02:26:40.353Z,9.72
2018-05-29T02:27:40.370Z,9.43
2018-05-29T02:28:40.382Z,9.21
2018-05-29T02:29:40.399Z,9.28
2018-05-29T02:30:40.410Z,9.05
2018-05-29T02:31:40.424Z,9.10
2018-05-29T02:32:40.440Z,8.99
2018-05-29T02:33:40.453Z,9.04
2018-05-29T02:34:40.469Z,9.01
2018-05-29T02:35:40.480Z,8.98
2018-05-29T02:36:40.493Z,9.11
2018-05-29T02:37:40.511Z,9.17
2018-05-29T02:38:40.523Z,9.14
2018-05-29T02:39:40.535Z,9.24
2018-05-29T02:40:40.548Z,9.20
2018-05-29T02:41:40.565Z,9.29
2018-05-29T02:42:40.575Z,9.26
2018-05-29T02:43:40.591Z,9.21
2018-05-29T02:44:40.603Z,9.18
2018-05-29T02:45:40.616Z,9.21
2018-05-29T02:46:40.629Z,9.28
2018-05-29T02:47:40.650Z,9.33
2018-05-29T02:48:40.656Z,9.35
2018-05-29T02:49:40.671Z,9.29
2018-05-29T02:50:40.683Z,9.26
2018-05-29T02:51:40.696Z,9.26
2018-05-29T02:52:40.712Z,9.38
2018-05-29T02:53:40.723Z,9.40
2018-05-29T02:54:40.738Z,9.38
2018-05-29T02:55:40.750Z,9.47
2018-05-29T02:56:40.766Z,9.39
2018-05-29T02:57:40.778Z,9.42
2018-05-29T02:58:40.790Z,9.35
2018-05-29T02:59:40.805Z,9.47
2018-05-29T03:00:40.818Z,9.39
2018-05-29T03:01:40.832Z,9.48
2018-05-29T03:02:40.845Z,9.53
2018-05-29T03:03:40.858Z,9.51
2018-05-29T03:04:40.872Z,9.53
2018-05-29T03:05:40.887Z,9.50
2018-05-29T03:06:40.898Z,9.57
2018-05-29T03:07:40.915Z,9.48
2018-05-29T03:08:40.925Z,9.65
2018-05-29T03:09:40.941Z,9.61
2018-05-29T03:10:40.954Z,9.60
2018-05-29T03:11:40.966Z,9.69
2018-05-29T03:12:40.980Z,9.65
2018-05-29T03:13:40.998Z,9.64
2018-05-29T03:14:41.007Z,9.50
2018-05-29T03:15:41.021Z,9.38
2018-05-29T03:16:41.034Z,9.23
2018-05-29T03:17:41.049Z,9.33
2018-05-29T03:18:41.061Z,9.28
2018-05-29T03:19:41.075Z,9.24
2018-05-29T03:20:41.087Z,9.26
2018-05-29T03:21:41.103Z,9.20
2018-05-29T03:22:41.116Z,9.28
2018-05-29T03:23:41.129Z,9.39
2018-05-29T03:24:41.146Z,9.39
2018-05-29T03:25:41.160Z,9.43
2018-05-29T03:26:41.171Z,9.43
2018-05-29T03:27:41.184Z,9.51
2018-05-29T03:28:41.198Z,9.54
2018-05-29T03:29:41.211Z,9.53
2018-05-29T03:30:41.226Z,9.64
2018-05-29T03:31:41.243Z,9.69
2018-05-29T03:32:41.250Z,9.57
2018-05-29T03:33:41.268Z,9.60
2018-05-29T03:34:41.278Z,9.54
2018-05-29T03:35:41.292Z,9.66
2018-05-29T03:36:41.306Z,9.60
2018-05-29T03:37:41.323Z,9.69
2018-05-29T03:38:41.334Z,9.38
2018-05-29T03:39:41.348Z,9.29
2018-05-29T03:40:41.362Z,9.23
2018-05-29T03:41:41.375Z,9.18
2018-05-29T03:42:41.388Z,9.18
2018-05-29T03:43:41.401Z,9.29
2018-05-29T03:44:41.414Z,9.23
2018-05-29T03:45:41.427Z,9.23
2018-05-29T03:46:41.444Z,9.26
2018-05-29T03:47:41.456Z,9.29
2018-05-29T03:48:41.470Z,9.28
2018-05-29T03:49:41.482Z,9.26
2018-05-29T03:50:41.500Z,9.31
2018-05-29T03:51:41.515Z,9.35
2018-05-29T03:52:41.524Z,9.29
2018-05-29T03:53:41.536Z,9.40
2018-05-29T03:54:41.555Z,9.42
2018-05-29T03:55:41.567Z,9.40
2018-05-29T03:56:41.582Z,9.35
2018-05-29T03:57:41.592Z,9.42
2018-05-29T03:58:41.605Z,9.40
2018-05-29T03:59:41.617Z,9.50
2018-05-29T04:00:41.631Z,9.47
2018-05-29T04:01:41.644Z,9.47
2018-05-29T04:02:41.661Z,9.40
2018-05-29T04:03:41.672Z,9.50
2018-05-29T04:04:41.685Z,9.56
2018-05-29T04:05:41.701Z,9.47
2018-05-29T04:06:41.711Z,9.46
2018-05-29T04:07:41.725Z,9.43
2018-05-29T04:08:41.738Z,9.26
2018-05-29T04:09:41.753Z,9.26
2018-05-29T04:10:41.769Z,9.15
2018-05-29T04:11:41.780Z,9.24
2018-05-29T04:12:41.795Z,9.23
2018-05-29T04:13:41.807Z,9.23
2018-05-29T04:14:41.826Z,9.29
2018-05-29T04:15:41.838Z,9.31
2018-05-29T04:16:41.847Z,9.46
2018-05-29T04:17:41.860Z,9.33
2018-05-29T04:18:41.873Z,9.40
2018-05-29T04:19:41.894Z,9.47
2018-05-29T04:20:41.901Z,9.47
2018-05-29T04:21:41.916Z,9.43
2018-05-29T04:22:41.930Z,9.42
2018-05-29T04:23:41.939Z,9.38
2018-05-29T04:24:41.955Z,9.29
2018-05-29T04:25:41.971Z,9.38
2018-05-29T04:26:41.981Z,9.42
2018-05-29T04:27:41.995Z,9.46
2018-05-29T04:28:42.010Z,9.53
2018-05-29T04:29:42.022Z,9.50
2018-05-29T04:30:42.034Z,9.47
2018-05-29T04:31:42.049Z,9.56
2018-05-29T04:32:42.061Z,9.54
2018-05-29T04:33:42.076Z,9.57
2018-05-29T04:34:42.088Z,9.68
2018-05-29T04:35:42.101Z,9.71
2018-05-29T04:36:42.115Z,9.71
2018-05-29T04:37:42.130Z,9.74
2018-05-29T04:38:42.142Z,9.72
2018-05-29T04:39:42.155Z,9.69
2018-05-29T04:40:42.173Z,9.81
2018-05-29T04:41:42.184Z,9.69
2018-05-29T04:42:42.196Z,9.72
2018-05-29T04:43:42.270Z,9.74
2018-05-29T04:44:42.225Z,9.65
2018-05-29T04:45:42.236Z,9.65
2018-05-29T04:46:42.251Z,9.65
2018-05-29T04:47:42.262Z,9.56
2018-05-29T04:48:42.276Z,9.53
2018-05-29T04:49:42.343Z,9.54
2018-05-29T04:50:42.305Z,9.65
2018-05-29T04:51:42.316Z,9.56
2018-05-29T04:52:42.338Z,9.65
2018-05-29T04:53:42.346Z,9.46
2018-05-29T04:54:42.357Z,9.35
2018-05-29T04:55:42.371Z,9.31
2018-05-29T04:56:42.385Z,9.15
2018-05-29T04:57:42.399Z,9.17
2018-05-29T04:58:42.411Z,9.20
2018-05-29T04:59:42.429Z,9.24
2018-05-29T05:00:42.441Z,9.20
2018-05-29T05:01:42.453Z,9.33
2018-05-29T05:02:42.466Z,9.35
2018-05-29T05:03:42.479Z,9.40
2018-05-29T05:04:42.492Z,9.24
2018-05-29T05:05:42.505Z,9.17
2018-05-29T05:06:42.520Z,8.99
2018-05-29T05:07:42.534Z,9.02
2018-05-29T05:08:42.546Z,8.96
2018-05-29T05:09:42.558Z,8.77
2018-05-29T05:10:42.572Z,8.80
2018-05-29T05:11:42.585Z,8.76
2018-05-29T05:12:42.602Z,8.77
2018-05-29T05:13:42.612Z,8.58
2018-05-29T05:14:42.623Z,8.68
2018-05-29T05:15:42.638Z,8.65
2018-05-29T05:16:42.653Z,8.62
2018-05-29T05:17:42.664Z,8.52
2018-05-29T05:18:42.675Z,8.58
2018-05-29T05:19:42.692Z,8.59
2018-05-29T05:20:42.706Z,8.59
2018-05-29T05:21:42.717Z,8.63
2018-05-29T05:22:42.729Z,8.63
2018-05-29T05:23:42.741Z,8.66
2018-05-29T05:24:42.755Z,8.76
2018-05-29T05:25:42.769Z,8.68
2018-05-29T05:26:42.778Z,8.87
2018-05-29T05:27:42.798Z,8.80
2018-05-29T05:28:42.806Z,8.86
2018-05-29T05:29:42.823Z,8.92
2018-05-29T05:30:42.829Z,9.02
2018-05-29T05:31:42.844Z,9.10
2018-05-29T05:32:42.856Z,9.17
2018-05-29T05:33:42.870Z,9.21
2018-05-29T05:34:42.882Z,9.26
2018-05-29T05:35:42.894Z,9.29
2018-05-29T05:36:42.909Z,9.33
2018-05-29T05:37:42.921Z,9.35
2018-05-29T05:38:42.937Z,9.40
2018-05-29T05:39:42.947Z,9.38
2018-05-29T05:40:42.963Z,9.51
2018-05-29T05:41:42.978Z,9.56
2018-05-29T05:42:42.986Z,9.50
2018-05-29T05:43:43.000Z,9.51
2018-05-29T05:44:43.012Z,9.43
2018-05-29T05:45:43.026Z,9.42
2018-05-29T05:46:43.038Z,9.38
2018-05-29T05:47:43.053Z,9.48
2018-05-29T05:48:43.064Z,9.42
2018-05-29T05:49:43.080Z,9.40
2018-05-29T05:50:43.092Z,9.35
2018-05-29T05:51:43.105Z,9.43
2018-05-29T05:52:43.155Z,9.47
2018-05-29T05:53:43.131Z,9.51
2018-05-29T05:54:43.143Z,9.65
2018-05-29T05:55:43.157Z,9.64
2018-05-29T05:56:43.169Z,9.64
2018-05-29T05:57:43.187Z,9.78
2018-05-29T05:58:43.196Z,9.81
2018-05-29T05:59:43.210Z,9.90
2018-05-29T06:00:43.223Z,9.83
2018-05-29T06:01:43.235Z,9.64
2018-05-29T06:02:43.247Z,9.57
2018-05-29T06:03:43.261Z,9.54
2018-05-29T06:04:43.274Z,9.56
2018-05-29T06:05:43.287Z,9.54
2018-05-29T06:06:43.301Z,9.51
2018-05-29T06:07:43.324Z,9.60
2018-05-29T06:08:43.326Z,9.61
2018-05-29T06:09:43.350Z,9.69
2018-05-29T06:10:43.359Z,9.75
2018-05-29T06:11:43.368Z,9.86
2018-05-29T06:12:43.382Z,9.86
2018-05-29T06:13:43.392Z,10.01
2018-05-29T06:14:43.406Z,9.96
2018-05-29T06:15:43.417Z,9.99
2018-05-29T06:16:43.434Z,10.02
2018-05-29T06:17:43.448Z,10.14
2018-05-29T06:18:43.461Z,10.14
2018-05-29T06:19:43.474Z,10.27
2018-05-29T06:20:43.486Z,10.32
2018-05-29T06:21:43.499Z,10.36
2018-05-29T06:22:43.514Z,10.48
2018-05-29T06:23:43.525Z,10.55
2018-05-29T06:24:43.539Z,10.61
2018-05-29T06:25:43.553Z,10.55
2018-05-29T06:26:43.566Z,10.55
2018-05-29T06:27:43.583Z,10.63
2018-05-29T06:28:43.594Z,10.79
2018-05-29T06:29:43.608Z,10.71
2018-05-29T06:30:43.619Z,10.84
2018-05-29T06:31:43.635Z,10.84
2018-05-29T06:32:43.701Z,10.89
2018-05-29T06:33:43.674Z,10.99
2018-05-29T06:34:43.675Z,10.88
2018-05-29T06:35:43.689Z,10.88
2018-05-29T06:36:43.704Z,10.96
2018-05-29T06:37:43.717Z,10.92
2018-05-29T06:38:43.788Z,11.02
2018-05-29T06:39:43.743Z,11.09
2018-05-29T06:40:43.756Z,11.03
2018-05-29T06:41:43.772Z,11.10
2018-05-29T06:42:43.784Z,11.19
2018-05-29T06:43:43.848Z,11.11
2018-05-29T06:44:43.813Z,10.97
2018-05-29T06:45:43.825Z,11.06
2018-05-29T06:46:43.841Z,11.06
2018-05-29T06:47:43.855Z,11.15
2018-05-29T06:48:43.870Z,11.06
2018-05-29T06:49:43.882Z,10.96
2018-05-29T06:50:43.897Z,10.64
2018-05-29T06:51:43.910Z,10.48
2018-05-29T06:52:43.925Z,10.51
2018-05-29T06:53:43.941Z,10.38
2018-05-29T06:54:43.954Z,10.36
2018-05-29T06:55:43.966Z,10.34
2018-05-29T06:56:43.981Z,10.40
2018-05-29T06:57:44.014Z,10.38
2018-05-29T06:58:44.007Z,10.33
2018-05-29T06:59:44.022Z,10.51
2018-05-29T07:00:44.042Z,10.59
2018-05-29T07:01:44.051Z,10.60
2018-05-29T07:02:44.065Z,10.71
2018-05-29T07:03:44.078Z,10.71
2018-05-29T07:04:44.092Z,10.67
2018-05-29T07:05:44.105Z,10.55
2018-05-29T07:06:44.119Z,10.29
2018-05-29T07:07:44.132Z,10.40
2018-05-29T07:08:44.147Z,10.40
2018-05-29T07:09:44.160Z,10.48
2018-05-29T07:10:44.172Z,10.55
2018-05-29T07:11:44.189Z,10.61
2018-05-29T07:12:44.202Z,10.66
2018-05-29T07:13:44.217Z,10.81
2018-05-29T07:14:44.229Z,10.81
2018-05-29T07:15:44.243Z,10.74
2018-05-29T07:16:44.258Z,10.96
2018-05-29T07:17:44.273Z,10.94
2018-05-29T07:18:44.288Z,10.94
2018-05-29T07:19:44.299Z,10.89
2018-05-29T07:20:44.312Z,10.96
2018-05-29T07:21:44.328Z,10.96
2018-05-29T07:22:44.339Z,11.00
2018-05-29T07:23:44.355Z,11.02
2018-05-29T07:24:44.410Z,11.03
2018-05-29T07:25:44.382Z,10.92
2018-05-29T07:26:44.396Z,10.94
2018-05-29T07:27:44.411Z,10.88
2018-05-29T07:28:44.428Z,10.92
2018-05-29T07:29:44.441Z,10.96
2018-05-29T07:30:44.453Z,11.00
2018-05-29T07:31:44.468Z,11.06
2018-05-29T07:32:44.481Z,10.97
2018-05-29T07:33:44.494Z,11.17
2018-05-29T07:34:44.517Z,11.15
2018-05-29T07:35:44.522Z,11.32
2018-05-29T07:36:44.538Z,11.36
2018-05-29T07:37:44.553Z,11.11
2018-05-29T07:38:44.565Z,11.07
2018-05-29T07:39:44.592Z,11.28
2018-05-29T07:40:44.590Z,11.40
2018-05-29T07:41:44.613Z,11.42
2018-05-29T07:42:44.620Z,11.47
2018-05-29T07:43:44.635Z,11.49
2018-05-29T07:44:44.649Z,11.52
2018-05-29T07:45:44.663Z,11.49
2018-05-29T07:46:44.675Z,11.46
2018-05-29T07:47:44.693Z,11.39
2018-05-29T07:48:44.705Z,11.27
2018-05-29T07:49:44.723Z,11.25
2018-05-29T07:50:44.736Z,11.14
2018-05-29T07:51:44.748Z,11.11
2018-05-29T07:52:44.763Z,11.07
2018-05-29T07:53:44.777Z,11.09
2018-05-29T07:54:44.789Z,11.29
2018-05-29T07:55:44.806Z,11.51
2018-05-29T07:56:44.818Z,11.62
2018-05-29T07:57:44.832Z,11.80
2018-05-29T07:58:44.881Z,11.95
2018-05-29T07:59:44.862Z,12.01
2018-05-29T08:00:44.875Z,11.94
2018-05-29T08:01:44.893Z,11.85
2018-05-29T08:02:44.904Z,11.94
2018-05-29T08:03:44.919Z,11.91
2018-05-29T08:04:44.932Z,11.83
2018-05-29T08:05:44.947Z,11.82
2018-05-29T08:06:45.012Z,11.94
2018-05-29T08:07:44.981Z,11.88
2018-05-29T08:08:44.990Z,11.96
2018-05-29T08:09:45.007Z,11.96
2018-05-29T08:10:45.018Z,12.02
2018-05-29T08:11:45.037Z,12.07
2018-05-29T08:12:45.048Z,12.02
2018-05-29T08:13:45.061Z,11.96
2018-05-29T08:14:45.076Z,12.14
2018-05-29T08:15:45.090Z,12.24
2018-05-29T08:16:45.105Z,12.16
2018-05-29T08:17:45.120Z,12.20
2018-05-29T08:18:45.134Z,12.23
2018-05-29T08:19:45.147Z,12.31
2018-05-29T08:20:45.164Z,12.31
2018-05-29T08:21:45.177Z,12.45
2018-05-29T08:22:45.192Z,12.47
2018-05-29T08:23:45.208Z,12.52
2018-05-29T08:24:45.221Z,12.52
2018-05-29T08:25:45.235Z,12.56
2018-05-29T08:26:45.250Z,12.60
2018-05-29T08:27:45.266Z,12.29
2018-05-29T08:28:45.279Z,12.05
2018-05-29T08:29:45.295Z,12.05
2018-05-29T08:30:45.309Z,12.02
2018-05-29T08:31:45.326Z,11.99
2018-05-29T08:32:45.339Z,11.91
2018-05-29T08:33:45.354Z,11.58
2018-05-29T08:34:45.370Z,11.55
2018-05-29T08:35:45.382Z,11.70
2018-05-29T08:36:45.398Z,11.90
2018-05-29T08:37:45.414Z,11.99
2018-05-29T08:38:45.430Z,12.14
2018-05-29T08:39:45.560Z,12.28
2018-05-29T08:40:45.458Z,12.29
2018-05-29T08:41:45.472Z,12.32
2018-05-29T08:42:45.485Z,12.46
2018-05-29T08:43:45.502Z,12.27
2018-05-29T08:44:45.516Z,12.31
2018-05-29T08:45:45.530Z,12.27
2018-05-29T08:46:45.544Z,12.16
2018-05-29T08:47:45.561Z,12.07
2018-05-29T08:48:45.576Z,12.07
2018-05-29T08:49:45.590Z,11.88
2018-05-29T08:50:45.604Z,11.99
2018-05-29T08:51:45.619Z,12.37
2018-05-29T08:52:45.635Z,12.39
2018-05-29T08:53:45.650Z,12.54
2018-05-29T08:54:45.664Z,12.75
2018-05-29T08:55:45.680Z,12.83
2018-05-29T08:56:45.749Z,12.89
2018-05-29T08:57:45.710Z,13.08
2018-05-29T08:58:45.724Z,13.10
2018-05-29T08:59:45.740Z,13.20
2018-05-29T09:00:45.754Z,13.36
2018-05-29T09:01:45.770Z,13.29
2018-05-29T09:02:45.784Z,13.30
2018-05-29T09:03:45.799Z,13.33
2018-05-29T09:04:45.815Z,13.19
2018-05-29T09:05:45.830Z,13.22
2018-05-29T09:06:45.844Z,13.10
2018-05-29T09:07:45.859Z,13.03
2018-05-29T09:08:45.878Z,12.67
2018-05-29T09:09:45.891Z,12.56
2018-05-29T09:10:45.905Z,12.28
2018-05-29T09:11:45.924Z,12.37
2018-05-29T09:12:45.936Z,12.39
2018-05-29T09:13:45.951Z,12.45
2018-05-29T09:14:45.966Z,12.31
2018-05-29T09:15:45.984Z,12.28
2018-05-29T09:16:45.997Z,12.38
2018-05-29T09:17:46.015Z,12.29
2018-05-29T09:18:46.028Z,12.45
2018-05-29T09:19:46.043Z,12.56
2018-05-29T09:20:46.058Z,12.52
2018-05-29T09:21:46.073Z,12.34
2018-05-29T09:22:46.091Z,12.42
2018-05-29T09:23:46.102Z,12.21
2018-05-29T09:24:46.121Z,12.20
2018-05-29T09:25:46.135Z,12.14
2018-05-29T09:26:46.149Z,12.17
2018-05-29T09:27:46.166Z,12.34
2018-05-29T09:28:46.180Z,12.45
2018-05-29T09:29:46.277Z,12.65
2018-05-29T09:30:46.215Z,12.82
2018-05-29T09:31:46.225Z,12.87
2018-05-29T09:32:46.243Z,12.92
2018-05-29T09:33:46.257Z,12.89
2018-05-29T09:34:46.273Z,13.01
2018-05-29T09:35:46.287Z,12.82
2018-05-29T09:36:46.303Z,13.00
2018-05-29T09:37:46.317Z,13.15
2018-05-29T09:38:46.332Z,13.29
2018-05-29T09:39:46.349Z,13.20
2018-05-29T09:40:46.368Z,13.25
2018-05-29T09:41:46.380Z,13.30
2018-05-29T09:42:46.396Z,13.20
2018-05-29T09:43:46.411Z,13.05
2018-05-29T09:44:46.480Z,13.17
2018-05-29T09:45:46.452Z,13.29
2018-05-29T09:46:46.457Z,13.44
2018-05-29T09:47:46.472Z,13.70
2018-05-29T09:48:46.488Z,13.89
2018-05-29T09:49:46.503Z,14.14
2018-05-29T09:50:46.519Z,14.03
2018-05-29T09:51:46.534Z,14.14
2018-05-29T09:52:46.581Z,14.03
2018-05-29T09:53:46.567Z,14.07
2018-05-29T09:54:46.580Z,14.17
2018-05-29T09:55:46.596Z,13.84
2018-05-29T09:56:46.613Z,13.87
2018-05-29T09:57:46.630Z,13.81
2018-05-29T09:58:46.645Z,14.03
2018-05-29T09:59:46.658Z,13.95
2018-05-29T10:00:46.677Z,13.55
2018-05-29T10:01:46.691Z,13.38
2018-05-29T10:02:46.705Z,13.23
2018-05-29T10:03:46.721Z,13.25
2018-05-29T10:04:46.738Z,13.67
2018-05-29T10:05:46.753Z,13.88
2018-05-29T10:06:46.769Z,13.85
2018-05-29T10:07:46.783Z,14.09
2018-05-29T10:08:46.805Z,14.40
2018-05-29T10:09:46.814Z,14.54
2018-05-29T10:10:46.833Z,14.55
2018-05-29T10:11:46.845Z,13.88
2018-05-29T10:12:46.864Z,13.99
2018-05-29T10:13:46.886Z,14.15
2018-05-29T10:14:46.893Z,14.52
2018-05-29T10:15:46.910Z,14.47
2018-05-29T10:16:46.926Z,14.81
2018-05-29T10:17:46.944Z,14.62
2018-05-29T10:18:46.956Z,14.96
2018-05-29T10:19:46.979Z,15.09
2018-05-29T10:20:46.993Z,14.98
2018-05-29T10:21:47.005Z,15.06
2018-05-29T10:22:47.018Z,14.60
2018-05-29T10:23:47.037Z,14.20
2018-05-29T10:24:47.052Z,14.51
2018-05-29T10:25:47.072Z,14.81
2018-05-29T10:26:47.083Z,14.78
2018-05-29T10:27:47.098Z,15.14
2018-05-29T10:28:47.116Z,15.29
2018-05-29T10:29:47.136Z,15.09
2018-05-29T10:30:47.147Z,15.36
2018-05-29T10:31:47.165Z,15.47
2018-05-29T10:32:47.180Z,14.94
2018-05-29T10:33:47.195Z,14.81
2018-05-29T10:34:47.214Z,14.78
2018-05-29T10:35:47.227Z,15.38
2018-05-29T10:36:47.247Z,15.67
2018-05-29T10:37:47.265Z,15.84
2018-05-29T10:38:47.278Z,15.97
2018-05-29T10:39:47.303Z,16.35
2018-05-29T10:40:47.309Z,16.41
2018-05-29T10:41:47.329Z,16.43
2018-05-29T10:42:47.348Z,15.64
2018-05-29T10:43:47.360Z,15.16
2018-05-29T10:44:47.379Z,15.17
2018-05-29T10:45:47.398Z,14.75
2018-05-29T10:46:47.409Z,14.61
2018-05-29T10:47:47.426Z,14.57
2018-05-29T10:48:47.446Z,14.61
2018-05-29T10:49:47.466Z,14.25
2018-05-29T10:50:47.476Z,13.91
2018-05-29T10:51:47.493Z,14.33
2018-05-29T10:52:47.509Z,14.62
2018-05-29T10:53:47.525Z,14.68
2018-05-29T10:54:47.541Z,14.95
2018-05-29T10:55:47.559Z,15.07
2018-05-29T10:56:47.575Z,14.95
2018-05-29T10:57:47.593Z,15.03
2018-05-29T10:58:47.609Z,15.29
2018-05-29T10:59:47.624Z,15.86
2018-05-29T11:00:47.643Z,15.83
2018-05-29T11:01:47.658Z,15.90
2018-05-29T11:02:47.675Z,15.87
2018-05-29T11:03:47.696Z,16.31
2018-05-29T11:04:47.707Z,16.67
2018-05-29T11:05:47.725Z,16.81
2018-05-29T11:06:47.755Z,16.83
2018-05-29T11:07:47.759Z,16.31
2018-05-29T11:08:47.775Z,15.86
2018-05-29T11:09:47.795Z,15.19
2018-05-29T11:10:47.810Z,14.96
2018-05-29T11:11:47.827Z,14.77
2018-05-29T11:12:47.845Z,14.81
2018-05-29T11:13:47.860Z,14.65
2018-05-29T11:14:47.878Z,14.86
2018-05-29T11:15:47.894Z,14.52
2018-05-29T11:16:47.911Z,14.21
2018-05-29T11:17:47.929Z,14.32
2018-05-29T11:18:47.945Z,14.28
2018-05-29T11:19:47.966Z,14.04
2018-05-29T11:20:47.980Z,14.28
2018-05-29T11:21:47.998Z,14.45
2018-05-29T11:22:48.012Z,14.75
2018-05-29T11:23:48.031Z,14.83
2018-05-29T11:24:48.048Z,14.69
2018-05-29T11:25:48.063Z,14.92
2018-05-29T11:26:48.080Z,14.88
2018-05-29T11:27:48.109Z,14.64
2018-05-29T11:28:48.116Z,14.60
2018-05-29T11:29:48.133Z,14.72
2018-05-29T11:30:48.150Z,14.72
2018-05-29T11:31:48.165Z,14.37
2018-05-29T11:32:48.185Z,13.87
2018-05-29T11:33:48.200Z,13.70
2018-05-29T11:34:48.219Z,13.78
2018-05-29T11:35:48.234Z,13.99
2018-05-29T11:36:48.254Z,14.29
2018-05-29T11:37:48.268Z,14.62
2018-05-29T11:38:48.286Z,14.72
2018-05-29T11:39:48.302Z,14.75
2018-05-29T11:40:48.319Z,14.37
2018-05-29T11:41:48.338Z,14.55
2018-05-29T11:42:48.353Z,14.68
2018-05-29T11:43:48.371Z,14.03
2018-05-29T11:44:48.387Z,14.32
2018-05-29T11:45:48.404Z,14.39
2018-05-29T11:46:48.421Z,14.27
2018-05-29T11:47:48.436Z,13.87
2018-05-29T11:48:48.454Z,13.67
2018-05-29T11:49:48.472Z,13.52
2018-05-29T11:50:48.486Z,13.66
2018-05-29T11:51:48.505Z,13.73
2018-05-29T11:52:48.522Z,13.60
2018-05-29T11:53:48.538Z,13.59
2018-05-29T11:54:48.556Z,13.75
2018-05-29T11:55:48.570Z,13.30
2018-05-29T11:56:48.588Z,13.36
2018-05-29T11:57:48.603Z,13.73
2018-05-29T11:58:48.621Z,13.66
2018-05-29T11:59:48.636Z,13.55
2018-05-29T12:00:48.655Z,13.69
2018-05-29T12:01:48.756Z,13.70
2018-05-29T12:02:48.684Z,13.67
2018-05-29T12:03:48.703Z,13.75
2018-05-29T12:04:48.720Z,14.18
2018-05-29T12:05:48.735Z,14.28
2018-05-29T12:06:48.750Z,14.54
2018-05-29T12:07:48.767Z,14.70
2018-05-29T12:08:48.785Z,14.75
2018-05-29T12:09:48.801Z,14.94
2018-05-29T12:10:48.817Z,14.94
2018-05-29T12:11:48.833Z,14.60
2018-05-29T12:12:48.853Z,14.37
2018-05-29T12:13:48.868Z,14.54
2018-05-29T12:14:48.887Z,14.57
2018-05-29T12:15:48.900Z,14.52
2018-05-29T12:16:48.963Z,14.60
2018-05-29T12:17:48.936Z,14.61
2018-05-29T12:18:48.950Z,14.61
2018-05-29T12:19:48.969Z,14.06
2018-05-29T12:20:48.983Z,13.88
2018-05-29T12:21:49.001Z,13.69
2018-05-29T12:22:49.019Z,13.38
2018-05-29T12:23:49.035Z,13.10
2018-05-29T12:24:49.051Z,12.75
2018-05-29T12:25:49.067Z,12.90
2018-05-29T12:26:49.084Z,12.87
2018-05-29T12:27:49.100Z,12.85
2018-05-29T12:28:49.118Z,12.96
2018-05-29T12:29:49.131Z,13.10
2018-05-29T12:30:49.148Z,13.12
2018-05-29T12:31:49.165Z,13.29
2018-05-29T12:32:49.181Z,13.32
2018-05-29T12:33:49.195Z,13.33
2018-05-29T12:34:49.213Z,13.38
2018-05-29T12:35:49.229Z,13.25
2018-05-29T12:36:49.244Z,13.10
2018-05-29T12:37:49.261Z,13.11
2018-05-29T12:38:49.279Z,13.07
2018-05-29T12:39:49.294Z,13.14
2018-05-29T12:40:49.311Z,13.14
2018-05-29T12:41:49.328Z,13.26
2018-05-29T12:42:49.342Z,13.32
2018-05-29T12:43:49.359Z,13.22
2018-05-29T12:44:49.375Z,13.33
2018-05-29T12:45:49.403Z,13.33
2018-05-29T12:46:49.406Z,13.46
2018-05-29T12:47:49.424Z,13.52
2018-05-29T12:48:49.438Z,13.57
2018-05-29T12:49:49.457Z,13.60
2018-05-29T12:50:49.472Z,13.64
2018-05-29T12:51:49.485Z,13.64
2018-05-29T12:52:49.503Z,13.66
2018-05-29T12:53:49.519Z,13.64
2018-05-29T12:54:49.536Z,13.55
2018-05-29T12:55:49.552Z,13.54
2018-05-29T12:56:49.567Z,13.64
2018-05-29T12:57:49.587Z,13.66
2018-05-29T12:58:49.601Z,13.66
2018-05-29T12:59:49.620Z,13.62
2018-05-29T13:00:49.632Z,13.57